This is the latest recevied weather packets stored in our database for station/object AI9F. If no packets are shown the sender has not sent any weather packets the latest 1 day(s).
| Time | Temp. | Humidity | Pressure | Rain* | Wind** | Luminosity | Snow |
|---|---|---|---|---|---|---|---|
| 1778096848 | 15.56° C | 50% | 1015.6 hPa | 0 mm | - | 760 W/m² | - |
| 1778095939 | 15.56° C | 58% | 1015.4 hPa | 0 mm | - | 689 W/m² | - |
| 1778095029 | 15.56° C | 54% | 1015.7 hPa | 0 mm | - | 596 W/m² | - |
| 1778094725 | 15° C | 58% | 1015.5 hPa | 0 mm | - | 754 W/m² | - |
| 1778094423 | 15.56° C | 53% | 1015.7 hPa | 0 mm | - | 515 W/m² | - |
| 1778094119 | 15.56° C | 60% | 1015.7 hPa | 0 mm | - | 544 W/m² | - |
| 1778092604 | 15° C | 64% | 1015.9 hPa | 0 mm | - | 482 W/m² | - |
| 1778092300 | 14.44° C | 67% | 1015.8 hPa | 0 mm | - | 506 W/m² | - |
| 1778091694 | 14.44° C | 68% | 1015.6 hPa | 0 mm | - | 534 W/m² | - |
| 1778090786 | 13.89° C | 70% | 1015.9 hPa | 0 mm | - | 295 W/m² | - |
| 1778089574 | 12.78° C | 70% | 1015.9 hPa | 0 mm | - | 241 W/m² | - |
| 1778088968 | 12.78° C | 70% | 1016 hPa | 0 mm | - | 195 W/m² | - |
| 1778088664 | 13.33° C | 73% | 1015.9 hPa | 0 mm | - | 214 W/m² | - |
| 1778087453 | 12.78° C | 72% | 1015.8 hPa | 0 mm | - | 362 W/m² | - |
| 1778087150 | 12.78° C | 71% | 1016 hPa | 0 mm | - | 298 W/m² | - |
| 1778086546 | 13.33° C | 72% | 1016.2 hPa | 0 mm | - | 210 W/m² | - |
| 1778085939 | 13.89° C | 71% | 1016.2 hPa | 0 mm | - | 309 W/m² | - |
| 1778085332 | 13.33° C | 74% | 1015.6 hPa | 0 mm | - | 528 W/m² | - |
| 1778085028 | 13.33° C | 72% | 1015.7 hPa | 0 mm | - | 474 W/m² | - |
| 1778080287 | 11.11° C | 79% | 1015.4 hPa | 0 mm | - | 178 W/m² | - |
| 1778079984 | 11.67° C | 80% | 1015.5 hPa | 0 mm | - | 156 W/m² | - |
| 1778079378 | 11.67° C | 81% | 1015.3 hPa | 0 mm | - | 195 W/m² | - |
| 1778077260 | 10.56° C | 84% | 1015.1 hPa | 0 mm | - | 135 W/m² | - |
| 1778076050 | 10.56° C | 86% | 1014.7 hPa | 0 mm | - | 134 W/m² | - |
| 1778072412 | 8.89° C | 95% | 1014 hPa | 0 mm | - | 54 W/m² | - |
* Rain latest hour (hover to see other rain measurements)
** Current wind speed in m/s (hover to see current wind gust speed)